Time;durP1;ratioP1;P1;durP2;ratioP2;P2;SDS_P1;SDS_P2;PMS_P1;PMS_P2;Temp;Humidity;BMP_temperature;BMP_pressure;BME280_temperature;BME280_humidity;BME280_pressure;Samples;Min_cycle;Max_cycle;Signal;HPM_P1;HPM_P2
2022/05/03 00:02:55;;;;;;;7.47;5.72;;;;;;;9.41;65.06;101853.34;4990999;28;20096;-84
2022/05/03 00:05:50;;;;;;;9.18;5.68;;;;;;;9.40;65.13;101850.78;4991834;28;20030;-83
2022/05/03 00:08:24;;;;;;;6.28;5.45;;;;;;;9.28;66.05;101849.66;4990346;28;20030;-83
2022/05/03 00:11:44;;;;;;;5.93;5.05;;;;;;;9.32;65.07;101851.22;4991963;28;20117;-84
2022/05/03 00:14:31;;;;;;;8.32;5.95;;;;;;;9.30;65.17;101847.81;4970915;28;20456;-82
2022/05/03 00:16:59;;;;;;;6.13;5.50;;;;;;;9.23;65.83;101846.44;5010186;28;20027;-82
2022/05/03 00:19:26;;;;;;;6.25;5.55;;;;;;;9.18;66.08;101847.59;4994151;28;20022;-84
2022/05/03 00:21:52;;;;;;;6.55;5.53;;;;;;;9.15;66.22;101837.25;4993262;28;20038;-84
2022/05/03 00:24:18;;;;;;;6.13;5.38;;;;;;;9.06;66.06;101835.94;4991124;28;20073;-83
2022/05/03 00:26:45;;;;;;;5.88;5.28;;;;;;;9.05;66.23;101842.97;4993104;28;20026;-84
2022/05/03 00:29:11;;;;;;;6.43;5.38;;;;;;;8.98;66.83;101831.09;4991633;28;20038;-83
2022/05/03 00:31:36;;;;;;;6.63;4.95;;;;;;;8.99;66.32;101847.69;4991855;28;20409;-84
2022/05/03 00:34:06;;;;;;;6.40;5.45;;;;;;;8.95;66.44;101840.91;4992760;28;20030;-83
2022/05/03 00:36:31;;;;;;;7.75;5.57;;;;;;;8.88;66.56;101840.38;4992238;28;20061;-84
2022/05/03 00:38:57;;;;;;;9.18;5.53;;;;;;;8.88;66.60;101835.13;4992093;28;20030;-84
2022/05/03 00:41:33;;;;;;;5.90;5.30;;;;;;;8.86;66.76;101841.38;4990848;28;20027;-83
2022/05/03 00:44:55;;;;;;;8.38;5.80;;;;;;;8.75;67.25;101844.53;4991695;28;20081;-83
2022/05/03 00:46:57;;;;;;;7.68;6.15;;;;;;;8.72;67.02;101842.06;4993986;28;20064;-82
2022/05/03 00:49:30;;;;;;;8.05;6.13;;;;;;;8.60;67.69;101840.91;4992746;28;20030;-83
2022/05/03 00:52:22;;;;;;;6.85;5.20;;;;;;;8.61;67.16;101842.59;4991200;28;20487;-84
2022/05/03 00:55:22;;;;;;;7.18;6.05;;;;;;;8.58;67.46;101848.00;4989060;28;20034;-84
2022/05/03 00:57:56;;;;;;;7.15;5.63;;;;;;;8.49;68.03;101848.47;4989642;28;20045;-84
2022/05/03 01:00:24;;;;;;;8.90;6.00;;;;;;;8.41;68.57;101845.38;4986260;28;20090;-84
2022/05/03 01:03:31;;;;;;;6.82;6.00;;;;;;;8.41;68.42;101845.38;4989647;28;20015;-84
2022/05/03 01:06:34;;;;;;;6.97;5.80;;;;;;;8.37;68.34;101849.03;4961896;28;20483;-84
2022/05/03 01:09:07;;;;;;;8.65;6.22;;;;;;;8.26;68.82;101852.16;4992689;28;20033;-84
2022/05/03 01:11:41;;;;;;;;;;;;;;;8.36;66.87;101840.31;4992734;28;20031;-85
2022/05/03 01:14:34;;;;;;;8.45;6.10;;;;;;;8.14;69.21;101843.13;4992664;28;20001;-85
2022/05/03 01:17:09;;;;;;;8.13;6.15;;;;;;;7.99;69.92;101841.22;4987415;28;20038;-85
2022/05/03 01:19:38;;;;;;;8.75;5.85;;;;;;;7.95;70.40;101841.44;4982715;28;20041;-85
2022/05/03 01:22:09;;;;;;;9.20;6.20;;;;;;;7.90;70.18;101833.78;4993325;28;20069;-85
2022/05/03 01:25:16;;;;;;;9.80;6.03;;;;;;;7.96;69.31;101835.25;4992857;28;20397;-85
2022/05/03 01:27:57;;;;;;;10.00;6.15;;;;;;;7.88;70.38;101830.38;4979753;28;20426;-85
2022/05/03 01:30:25;;;;;;;10.45;6.43;;;;;;;7.85;70.67;101838.41;4973401;28;20027;-85
2022/05/03 01:32:52;;;;;;;8.68;6.40;;;;;;;7.82;70.71;101835.91;5000554;28;20016;-85
2022/05/03 01:35:21;;;;;;;7.38;6.43;;;;;;;7.76;70.76;101836.22;4991351;28;20197;-85
2022/05/03 01:38:29;;;;;;;6.80;5.90;;;;;;;7.77;70.07;101833.50;4993679;28;20505;-84
2022/05/03 01:41:41;;;;;;;6.70;6.07;;;;;;;7.75;70.06;101834.50;4999682;28;20109;-84
2022/05/03 01:44:15;;;;;;;8.50;6.50;;;;;;;7.64;71.39;101827.16;5004305;28;20034;-83
2022/05/03 01:46:40;;;;;;;8.15;6.32;;;;;;;7.60;71.41;101827.34;4991450;28;20059;-83
2022/05/03 01:52:26;;;;;;;7.03;6.32;;;;;;;7.57;71.23;101827.47;4986918;28;20045;-83
2022/05/03 01:55:09;;;;;;;7.30;6.32;;;;;;;7.54;70.75;101826.69;4986303;28;20034;-83
2022/05/03 01:57:40;;;;;;;8.02;6.25;;;;;;;7.48;71.49;101826.97;4990234;28;20113;-84
2022/05/03 02:00:10;;;;;;;6.68;5.97;;;;;;;7.44;71.30;101825.44;5005935;28;20653;-83
2022/05/03 02:02:53;;;;;;;10.50;6.28;;;;;;;7.44;71.45;101822.81;4986613;28;20026;-85
2022/05/03 02:05:40;;;;;;;9.32;6.85;;;;;;;7.44;71.53;101825.44;4987932;28;20046;-83
2022/05/03 02:08:10;;;;;;;6.70;5.90;;;;;;;7.33;71.32;101816.38;4989355;28;20050;-82
2022/05/03 02:11:30;;;;;;;7.80;6.35;;;;;;;7.38;70.94;101825.72;4974469;28;20030;-83
2022/05/03 02:17:05;;;;;;;7.63;6.38;;;;;;;7.26;72.05;101825.41;4970456;28;20109;-83
2022/05/03 02:19:46;;;;;;;7.03;6.32;;;;;;;7.24;71.78;101825.47;4989443;28;20541;-83
2022/05/03 02:22:30;;;;;;;8.60;6.57;;;;;;;7.16;72.73;101815.34;4986523;28;20113;-84
2022/05/03 02:25:27;;;;;;;7.82;6.25;;;;;;;7.17;71.74;101824.03;4982995;28;20058;-83
2022/05/03 02:27:59;;;;;;;8.90;6.68;;;;;;;7.04;72.74;101830.72;4988425;28;20101;-84
2022/05/03 02:30:27;;;;;;;8.00;6.18;;;;;;;6.99;72.60;101820.47;4989696;28;20117;-83
2022/05/03 02:33:31;;;;;;;8.52;6.40;;;;;;;7.01;72.02;101826.47;4990022;28;20022;-83
2022/05/03 02:35:58;;;;;;;8.57;6.50;;;;;;;6.86;72.94;101819.31;4970929;28;20114;-84
2022/05/03 02:38:36;;;;;;;9.73;6.85;;;;;;;6.85;72.69;101820.22;4983732;28;20674;-83
2022/05/03 02:41:04;;;;;;;7.22;6.25;;;;;;;6.81;73.29;101822.13;4989503;28;20125;-84
2022/05/03 02:43:31;;;;;;;10.07;6.78;;;;;;;6.79;72.87;101821.31;4989292;28;20033;-84
2022/05/03 02:46:22;;;;;;;6.53;5.88;;;;;;;6.79;73.41;101810.84;4990871;28;20036;-83
2022/05/03 02:48:55;;;;;;;6.97;6.28;;;;;;;6.77;73.19;101822.28;4971551;28;20040;-83
2022/05/03 02:51:26;;;;;;;8.50;6.30;;;;;;;6.72;73.18;101830.31;4981022;28;20545;-83
2022/05/03 02:53:55;;;;;;;8.73;6.80;;;;;;;6.68;73.39;101827.91;5006226;28;20030;-83
2022/05/03 02:56:23;;;;;;;7.93;6.35;;;;;;;6.65;73.84;101835.88;4990334;28;20108;-83
2022/05/03 02:59:05;;;;;;;6.95;6.20;;;;;;;6.63;73.90;101835.94;4990360;28;20027;-83
2022/05/03 03:01:48;;;;;;;8.52;6.40;;;;;;;6.58;73.98;101832.69;4991096;28;20027;-83
2022/05/03 03:04:25;;;;;;;10.77;6.57;;;;;;;6.52;73.78;101832.94;4987396;28;20030;-83
2022/05/03 03:06:55;;;;;;;7.03;6.32;;;;;;;6.46;74.31;101826.19;4991579;28;20085;-83
2022/05/03 03:09:26;;;;;;;6.82;6.10;;;;;;;6.44;73.94;101829.78;4978978;28;20027;-84
2022/05/03 03:12:21;;;;;;;9.60;6.15;;;;;;;6.46;74.12;101822.75;4989295;28;20042;-83
2022/05/03 03:14:47;;;;;;;8.18;6.70;;;;;;;6.40;74.04;101833.41;4989153;28;20085;-83
2022/05/03 03:17:19;;;;;;;9.25;6.55;;;;;;;6.32;74.42;101825.03;4988397;28;20036;-83
2022/05/03 03:20:06;;;;;;;8.25;6.82;;;;;;;6.35;74.25;101823.16;4989838;28;20022;-83
2022/05/03 03:22:37;;;;;;;9.95;6.88;;;;;;;6.26;74.87;101824.38;4989466;28;20057;-84
2022/05/03 03:25:04;;;;;;;8.35;6.38;;;;;;;6.20;74.70;101827.25;4993271;28;20403;-83
2022/05/03 03:27:33;;;;;;;9.55;6.10;;;;;;;6.16;74.60;101830.91;4991395;28;20541;-83
2022/05/03 03:30:01;;;;;;;10.18;6.38;;;;;;;6.12;75.32;101820.63;4993332;28;20489;-85
2022/05/03 03:32:27;;;;;;;6.70;6.00;;;;;;;6.09;74.94;101834.66;4990571;28;20029;-83
2022/05/03 03:34:57;;;;;;;9.50;7.05;;;;;;;6.00;76.07;101829.78;4992395;28;20030;-83
2022/05/03 03:37:25;;;;;;;7.32;6.43;;;;;;;5.97;76.01;101832.50;4992571;28;20081;-83
2022/05/03 03:39:51;;;;;;;9.25;7.13;;;;;;;5.94;75.57;101824.81;4990507;28;20026;-84
2022/05/03 03:42:17;;;;;;;9.85;6.82;;;;;;;5.89;76.28;101821.50;4991100;28;20064;-84
2022/05/03 03:44:43;;;;;;;11.63;7.55;;;;;;;5.86;76.50;101817.22;4993479;28;20038;-84
2022/05/03 03:47:08;;;;;;;8.13;6.95;;;;;;;5.82;76.51;101817.41;4992437;28;20514;-83
2022/05/03 03:49:34;;;;;;;7.78;6.75;;;;;;;5.81;75.90;101818.31;4992784;28;20080;-83
2022/05/03 03:52:01;;;;;;;8.02;6.57;;;;;;;5.75;76.43;101808.13;4993390;28;20022;-83
2022/05/03 03:54:27;;;;;;;7.78;6.75;;;;;;;5.73;76.27;101826.47;4991636;28;20023;-83
2022/05/03 03:56:54;;;;;;;9.27;7.15;;;;;;;5.71;76.77;101824.81;4992459;28;20030;-83
2022/05/03 03:59:19;;;;;;;11.00;7.60;;;;;;;5.68;77.07;101822.31;4992693;28;20026;-83
2022/05/03 04:01:48;;;;;;;13.40;7.00;;;;;;;5.66;76.97;101825.00;4988030;28;20033;-83
2022/05/03 04:04:15;;;;;;;8.30;7.28;;;;;;;5.61;77.23;101817.34;4993008;28;20049;-83
2022/05/03 04:06:41;;;;;;;9.27;7.22;;;;;;;5.61;77.29;101822.56;4991418;28;20034;-83
2022/05/03 04:09:06;;;;;;;11.68;6.95;;;;;;;5.58;77.21;101817.44;4988861;28;20113;-83
2022/05/03 04:11:45;;;;;;;10.40;7.43;;;;;;;5.57;77.30;101820.94;4993373;28;20034;-83
2022/05/03 04:14:12;;;;;;;11.43;7.40;;;;;;;5.52;77.62;101822.88;4992317;28;20027;-83
2022/05/03 04:16:37;;;;;;;10.10;7.97;;;;;;;5.49;77.43;101816.94;4990706;28;20026;-83
2022/05/03 04:19:02;;;;;;;12.98;7.03;;;;;;;5.50;77.54;101823.84;4991939;28;20150;-83
2022/05/03 04:21:28;;;;;;;9.57;8.13;;;;;;;5.48;78.03;101823.06;4992071;28;20018;-83
2022/05/03 04:23:53;;;;;;;10.52;8.13;;;;;;;5.48;78.65;101826.50;4991986;28;20386;-83
2022/05/03 04:26:19;;;;;;;10.90;7.50;;;;;;;5.43;78.24;101825.84;4992573;28;20398;-83
2022/05/03 04:28:44;;;;;;;13.02;8.45;;;;;;;5.44;78.62;101824.94;4991795;28;20041;-83
2022/05/03 04:31:09;;;;;;;9.38;8.15;;;;;;;5.44;78.92;101829.31;4990663;28;20050;-83
2022/05/03 04:33:35;;;;;;;10.20;8.02;;;;;;;5.41;78.85;101827.66;4990857;28;20022;-83
2022/05/03 04:36:00;;;;;;;16.77;8.73;;;;;;;5.39;79.04;101824.25;4990078;28;20042;-84
2022/05/03 04:38:25;;;;;;;12.63;8.48;;;;;;;5.38;79.23;101824.31;4984121;28;20026;-83
2022/05/03 04:40:58;;;;;;;11.70;8.43;;;;;;;5.42;78.84;101831.13;4986675;28;20048;-83
2022/05/03 04:43:23;;;;;;;;;;;;;;;5.52;76.26;101828.09;4991550;28;20034;-83
2022/05/03 04:45:49;;;;;;;11.37;8.07;;;;;;;5.43;78.77;101836.28;4992268;28;20274;-83
2022/05/03 04:48:14;;;;;;;13.07;8.32;;;;;;;5.43;79.29;101833.66;4992262;28;20317;-83
2022/05/03 04:50:41;;;;;;;11.52;8.63;;;;;;;5.45;79.45;101836.22;4993648;28;20057;-83
2022/05/03 04:53:06;;;;;;;13.45;9.00;;;;;;;5.47;79.79;101844.84;4991999;28;20154;-84
2022/05/03 04:55:31;;;;;;;12.32;9.00;;;;;;;5.46;79.82;101840.53;4993136;28;20626;-84
2022/05/03 04:57:57;;;;;;;11.98;9.00;;;;;;;5.48;79.58;101841.31;4990488;28;20030;-84
2022/05/03 05:00:22;;;;;;;9.90;8.57;;;;;;;5.48;80.28;101846.53;4991471;28;20382;-83
2022/05/03 05:02:47;;;;;;;10.75;8.82;;;;;;;5.48;80.10;101841.31;4986585;28;20037;-83
2022/05/03 05:05:12;;;;;;;11.75;8.70;;;;;;;5.51;80.24;101847.28;4993792;28;20059;-84
2022/05/03 05:07:38;;;;;;;11.10;8.95;;;;;;;5.50;80.89;101848.19;4993067;28;20088;-83
2022/05/03 05:10:24;;;;;;;15.35;8.88;;;;;;;5.52;79.99;101848.13;4991475;28;20386;-84
2022/05/03 05:12:51;;;;;;;14.73;9.05;;;;;;;5.55;80.42;101853.22;4991409;28;20026;-84
2022/05/03 05:15:17;;;;;;;10.07;8.95;;;;;;;5.59;80.44;101855.66;4990987;28;20046;-84
2022/05/03 05:17:42;;;;;;;13.10;9.52;;;;;;;5.62;80.15;101850.38;4992035;28;20392;-82
2022/05/03 05:20:08;;;;;;;10.73;9.20;;;;;;;5.66;79.96;101851.94;4982775;28;20026;-83
2022/05/03 05:22:33;;;;;;;12.77;9.35;;;;;;;5.71;80.18;101856.16;4989790;28;20474;-83
2022/05/03 05:24:59;;;;;;;10.95;8.77;;;;;;;5.76;80.05;101856.81;4990378;28;20444;-83
2022/05/03 05:27:24;;;;;;;14.00;9.23;;;;;;;5.80;80.56;101858.41;4990188;28;20080;-83
2022/05/03 05:29:50;;;;;;;9.90;8.40;;;;;;;5.85;79.57;101861.69;4988961;28;20030;-82
2022/05/03 05:32:18;;;;;;;11.85;9.73;;;;;;;5.91;79.58;101864.09;4989029;28;20026;-83
2022/05/03 05:34:44;;;;;;;14.02;9.23;;;;;;;5.95;80.04;101873.50;4989269;28;20026;-82
2022/05/03 05:37:09;;;;;;;17.05;9.00;;;;;;;6.01;79.67;101873.31;4984361;28;20390;-83
2022/05/03 05:39:35;;;;;;;11.73;9.02;;;;;;;6.07;78.52;101882.66;4989494;28;20037;-83
2022/05/03 05:42:01;;;;;;;14.43;9.07;;;;;;;6.12;79.07;101876.34;4990558;28;20058;-83
2022/05/03 05:44:29;;;;;;;12.95;9.57;;;;;;;6.15;78.89;101876.22;4988331;28;20030;-83
2022/05/03 05:46:55;;;;;;;12.82;9.10;;;;;;;6.20;79.38;101878.66;4990155;28;20034;-83
2022/05/03 05:49:23;;;;;;;11.75;9.43;;;;;;;6.27;79.36;101875.72;4990196;28;20038;-83
2022/05/03 05:51:48;;;;;;;13.02;9.65;;;;;;;6.33;79.61;101884.25;4984161;28;20049;-83
2022/05/03 05:54:16;;;;;;;12.57;9.10;;;;;;;6.38;79.57;101882.28;4979627;28;20022;-83
2022/05/03 05:56:42;;;;;;;11.40;9.20;;;;;;;6.47;79.67;101887.19;4990362;28;20520;-83
2022/05/03 05:59:07;;;;;;;13.30;10.02;;;;;;;6.52;79.25;101877.38;4985483;28;20036;-83
2022/05/03 06:01:40;;;;;;;12.18;9.40;;;;;;;6.58;79.08;101872.75;4970030;28;20035;-83
2022/05/03 06:04:06;;;;;;;10.18;8.75;;;;;;;6.63;78.77;101866.47;4973527;28;20263;-83
2022/05/03 06:06:32;;;;;;;12.60;9.15;;;;;;;6.68;78.22;101880.22;4990139;28;20023;-83
2022/05/03 06:09:01;;;;;;;14.93;10.02;;;;;;;6.75;78.72;101881.66;4990930;28;20018;-82
2022/05/03 06:11:27;;;;;;;15.43;9.70;;;;;;;6.78;78.26;101876.28;4975674;28;20093;-82
2022/05/03 06:13:52;;;;;;;14.32;9.65;;;;;;;6.84;78.20;101882.16;4991964;28;20101;-82
2022/05/03 06:16:18;;;;;;;15.52;9.48;;;;;;;6.89;77.72;101877.56;4989293;28;20046;-81
2022/05/03 06:18:44;;;;;;;11.55;9.05;;;;;;;6.98;76.78;101885.94;4991410;28;20502;-82
2022/05/03 06:21:10;;;;;;;14.02;9.45;;;;;;;7.03;76.63;101882.22;4990578;28;20032;-82
2022/05/03 06:23:36;;;;;;;16.42;9.35;;;;;;;7.10;76.33;101882.78;4992631;28;20034;-82
2022/05/03 06:26:05;;;;;;;14.48;8.77;;;;;;;7.17;76.16;101881.59;4989852;28;20022;-83
2022/05/03 06:28:30;;;;;;;11.98;8.15;;;;;;;7.23;75.39;101884.00;4990703;28;20504;-83
2022/05/03 06:30:55;;;;;;;12.68;9.10;;;;;;;7.32;75.52;101886.19;4988227;28;20018;-83
2022/05/03 06:33:21;;;;;;;12.77;9.18;;;;;;;7.41;74.23;101884.94;4989754;28;20026;-83
2022/05/03 06:35:46;;;;;;;10.77;8.32;;;;;;;7.45;73.16;101884.72;4988048;28;20030;-83
2022/05/03 06:38:11;;;;;;;12.95;7.70;;;;;;;7.53;72.83;101885.22;4986188;28;20022;-83
2022/05/03 06:40:37;;;;;;;10.18;8.40;;;;;;;7.64;73.20;101878.69;4988378;28;20023;-83
2022/05/03 06:43:02;;;;;;;11.63;7.80;;;;;;;7.71;72.71;101880.09;4988736;28;20125;-83
2022/05/03 06:45:27;;;;;;;14.13;8.10;;;;;;;7.79;71.71;101877.97;4990295;28;20364;-84
2022/05/03 06:47:53;;;;;;;11.65;7.75;;;;;;;7.86;71.38;101885.47;4989778;28;20030;-83
2022/05/03 06:50:18;;;;;;;8.35;6.72;;;;;;;7.98;69.86;101880.59;4989601;28;20035;-83
2022/05/03 06:52:44;;;;;;;12.02;6.95;;;;;;;8.08;69.66;101880.13;4990162;28;20105;-83
2022/05/03 06:55:11;;;;;;;8.13;6.20;;;;;;;8.18;68.81;101889.22;4989241;28;20026;-83
2022/05/03 06:57:36;;;;;;;9.98;6.03;;;;;;;8.32;68.11;101888.56;4992444;28;20030;-83
2022/05/03 07:00:05;;;;;;;7.43;6.15;;;;;;;8.42;67.22;101894.28;4993492;28;20038;-83
2022/05/03 07:02:34;;;;;;;8.25;5.60;;;;;;;8.49;65.62;101890.44;4993953;28;20105;-82
2022/05/03 07:05:00;;;;;;;6.93;5.30;;;;;;;8.58;63.89;101889.97;4991225;28;20057;-83
2022/05/03 07:07:29;;;;;;;6.90;5.20;;;;;;;8.79;65.04;101898.53;4993538;28;20056;-83
2022/05/03 07:09:55;;;;;;;6.22;4.50;;;;;;;8.87;62.87;101899.03;4990195;28;20034;-83
2022/05/03 07:12:21;;;;;;;6.28;5.00;;;;;;;8.99;62.92;101905.44;4991574;28;20032;-83
2022/05/03 07:14:46;;;;;;;6.78;4.90;;;;;;;9.12;61.45;101898.63;4991885;28;20050;-83
2022/05/03 07:22:46;;;;;;;5.00;3.88;;;;;;;9.52;58.01;101891.31;4993300;28;20100;-83
2022/05/03 07:25:12;;;;;;;5.03;3.60;;;;;;;9.65;57.24;101889.75;4993045;28;20034;-83
2022/05/03 07:27:37;;;;;;;3.72;3.33;;;;;;;9.78;56.33;101895.19;4993903;28;20022;-83
2022/05/03 07:30:03;;;;;;;4.43;4.03;;;;;;;9.89;56.45;101893.69;4993291;28;20478;-83
2022/05/03 07:32:29;;;;;;;4.30;3.90;;;;;;;10.02;55.66;101900.00;4992815;28;20064;-83
2022/05/03 07:34:54;;;;;;;5.07;3.78;;;;;;;10.17;54.90;101897.44;4991655;28;20513;-83
2022/05/03 07:37:19;;;;;;;4.72;3.95;;;;;;;10.30;55.56;101903.72;4992917;28;20026;-83
2022/05/03 07:39:47;;;;;;;4.47;3.75;;;;;;;10.41;54.59;101906.63;4992033;28;20489;-84
2022/05/03 07:42:13;;;;;;;4.43;3.63;;;;;;;10.57;54.39;101893.44;4991231;28;20018;-83
2022/05/03 07:44:38;;;;;;;4.47;3.78;;;;;;;10.70;52.99;101898.84;4992548;28;20062;-84
2022/05/03 07:47:03;;;;;;;4.22;3.30;;;;;;;10.86;53.32;101897.03;4991610;28;20445;-83
2022/05/03 07:49:29;;;;;;;4.40;3.35;;;;;;;10.96;52.02;101899.03;4993831;28;20033;-84
2022/05/03 07:51:54;;;;;;;4.00;3.40;;;;;;;11.12;50.92;101898.13;4992650;28;20029;-84
2022/05/03 07:54:20;;;;;;;5.28;3.83;;;;;;;11.23;49.28;101898.34;4993121;28;20479;-84
2022/05/03 07:56:46;;;;;;;5.05;4.00;;;;;;;11.39;49.74;101891.22;4991848;28;20030;-84
2022/05/03 07:59:12;;;;;;;4.43;3.92;;;;;;;11.52;49.05;101891.31;4985890;28;20038;-84
2022/05/03 08:01:40;;;;;;;4.70;4.00;;;;;;;11.66;49.88;101886.06;4987925;28;20101;-83
2022/05/03 08:04:05;;;;;;;7.03;4.25;;;;;;;11.80;50.13;101890.50;4972269;28;20470;-84
2022/05/03 08:06:31;;;;;;;5.43;3.80;;;;;;;11.98;49.67;101896.38;4988023;28;20057;-84
2022/05/03 08:08:56;;;;;;;4.85;3.80;;;;;;;12.12;50.75;101891.09;4994712;28;20029;-84
2022/05/03 08:11:22;;;;;;;5.43;4.43;;;;;;;12.25;49.88;101899.91;4999528;28;20025;-84
2022/05/03 08:13:49;;;;;;;5.30;4.00;;;;;;;12.39;49.17;101893.75;5011218;28;20533;-84
2022/05/03 08:16:17;;;;;;;4.78;4.30;;;;;;;12.60;49.97;101899.44;4997631;28;20097;-84
2022/05/03 08:18:43;;;;;;;6.03;4.47;;;;;;;12.71;49.27;101895.13;4989273;28;20377;-84
2022/05/03 08:21:11;;;;;;;6.00;4.53;;;;;;;12.87;49.29;101894.97;4972574;28;20033;-84
2022/05/03 08:23:36;;;;;;;4.80;4.35;;;;;;;12.96;48.38;101894.34;5006475;28;21025;-84
2022/05/03 08:26:01;;;;;;;7.50;4.60;;;;;;;13.17;49.50;101892.91;4992542;28;20037;-83
2022/05/03 08:28:27;;;;;;;7.10;4.70;;;;;;;13.23;48.41;101902.25;4990639;28;20027;-83
2022/05/03 08:30:52;;;;;;;6.22;5.30;;;;;;;13.36;47.73;101902.25;4991982;28;20476;-83
2022/05/03 08:33:17;;;;;;;5.72;5.13;;;;;;;13.51;48.00;101895.06;4992103;28;20029;-83
2022/05/03 08:35:43;;;;;;;5.93;5.07;;;;;;;13.66;48.86;101896.63;4987001;28;20058;-83
2022/05/03 08:43:35;;;;;;;6.55;5.40;;;;;;;14.09;48.12;101892.63;4972874;28;20194;-84
2022/05/03 08:46:03;;;;;;;7.30;5.97;;;;;;;14.23;48.21;101893.44;4973425;28;20657;-84
2022/05/03 08:48:31;;;;;;;6.22;5.57;;;;;;;14.31;47.14;101896.34;4971678;28;20031;-84
2022/05/03 08:50:58;;;;;;;8.25;6.00;;;;;;;14.50;47.75;101890.59;4971944;28;20391;-84
2022/05/03 08:53:24;;;;;;;12.02;6.30;;;;;;;14.65;48.49;101889.47;4973605;28;20521;-85
2022/05/03 08:55:50;;;;;;;10.75;6.18;;;;;;;14.77;47.51;101899.13;4973098;28;20030;-85
2022/05/03 08:58:18;;;;;;;8.75;6.30;;;;;;;14.91;47.41;101895.47;4977541;28;20050;-85
2022/05/03 09:00:43;;;;;;;8.18;6.38;;;;;;;15.01;46.66;101892.00;4985326;28;20034;-85
2022/05/03 09:03:09;;;;;;;8.60;6.88;;;;;;;15.16;47.04;101894.44;4989991;28;20034;-86
2022/05/03 09:05:34;;;;;;;8.60;6.38;;;;;;;15.26;47.55;101895.44;4983952;28;20061;-86
2022/05/03 09:08:01;;;;;;;8.77;7.13;;;;;;;15.30;46.34;101892.44;4992330;28;20030;-85
2022/05/03 09:10:31;;;;;;;7.40;6.45;;;;;;;15.37;46.27;101892.81;4991460;28;20437;-85
2022/05/03 09:13:22;;;;;;;9.80;7.00;;;;;;;15.56;47.92;101892.19;4993430;28;20018;-85
2022/05/03 09:15:56;;;;;;;7.88;6.15;;;;;;;15.66;47.21;101883.44;4992377;28;20050;-86
2022/05/03 09:18:28;;;;;;;6.93;6.25;;;;;;;15.88;47.08;101881.72;4990931;28;20030;-84
2022/05/03 09:23:51;;;;;;;7.35;6.63;;;;;;;16.11;46.88;101894.03;4991961;28;20081;-85
2022/05/03 09:26:21;;;;;;;11.43;6.68;;;;;;;16.26;48.31;101892.78;4992246;28;20093;-87
2022/05/03 09:28:54;;;;;;;8.38;7.30;;;;;;;16.39;47.75;101895.25;4980501;28;20034;-85
2022/05/03 09:31:46;;;;;;;16.13;7.60;;;;;;;16.56;47.35;101893.91;4989569;28;20030;-84
2022/05/03 09:34:19;;;;;;;8.25;6.82;;;;;;;16.63;47.01;101895.06;4981358;28;20105;-84
2022/05/03 09:36:58;;;;;;;10.77;6.30;;;;;;;16.76;47.46;101897.56;4991365;28;20041;-85
2022/05/03 09:39:32;;;;;;;7.72;6.93;;;;;;;16.83;46.26;101894.31;4991183;28;20034;-85
2022/05/03 09:42:12;;;;;;;10.02;6.05;;;;;;;16.90;46.43;101890.16;4998864;28;20384;-85
2022/05/03 09:44:51;;;;;;;9.48;6.50;;;;;;;17.02;46.72;101888.28;5011710;28;20030;-85
2022/05/03 09:47:18;;;;;;;8.55;6.55;;;;;;;17.16;46.07;101885.28;5010360;28;20071;-84
2022/05/03 09:49:43;;;;;;;8.75;6.90;;;;;;;17.24;45.93;101876.66;5010953;28;20025;-84
2022/05/03 09:52:27;;;;;;;7.85;7.05;;;;;;;17.35;46.77;101881.06;5009857;28;20040;-85
2022/05/03 09:55:03;;;;;;;9.63;7.10;;;;;;;17.44;45.44;101878.44;4973764;28;20027;-84
2022/05/03 09:57:31;;;;;;;8.50;7.45;;;;;;;17.62;45.58;101877.84;4971504;28;20046;-85
2022/05/03 09:59:58;;;;;;;9.27;6.03;;;;;;;17.72;45.64;101878.72;4970653;28;20037;-85
2022/05/03 10:02:25;;;;;;;8.82;7.20;;;;;;;17.74;44.66;101882.94;4970526;28;20249;-84
2022/05/03 10:04:53;;;;;;;7.95;7.10;;;;;;;17.75;44.41;101879.31;4973314;28;20018;-85
2022/05/03 10:07:20;;;;;;;7.78;6.57;;;;;;;17.93;45.99;101876.81;4990006;28;20414;-85
2022/05/03 10:09:46;;;;;;;6.57;5.88;;;;;;;18.00;45.48;101874.47;4987520;28;20379;-85
2022/05/03 10:12:13;;;;;;;10.73;6.20;;;;;;;18.05;44.48;101870.44;4974087;28;20034;-85
2022/05/03 10:14:42;;;;;;;9.50;6.28;;;;;;;18.24;46.04;101864.28;4970407;28;20479;-84
2022/05/03 10:23:01;;;;;;;8.27;6.70;;;;;;;18.38;43.72;101868.34;4964314;28;20051;-85
2022/05/03 10:25:54;;;;;;;7.03;5.60;;;;;;;18.59;45.43;101871.75;4971002;28;20513;-85
2022/05/03 10:28:20;;;;;;;5.85;5.25;;;;;;;18.70;43.83;101866.28;4981026;28;20402;-85
2022/05/03 10:31:04;;;;;;;5.82;4.60;;;;;;;18.85;44.32;101856.06;4974778;28;20027;-85
2022/05/03 10:33:29;;;;;;;7.05;5.38;;;;;;;18.94;42.42;101851.69;4992377;28;20077;-85
2022/05/03 10:35:55;;;;;;;6.37;5.50;;;;;;;19.13;43.18;101848.13;5010174;28;20030;-85
2022/05/03 10:38:39;;;;;;;6.82;6.13;;;;;;;19.25;44.26;101850.50;4996148;28;20273;-85
2022/05/03 10:41:05;;;;;;;8.07;6.53;;;;;;;19.33;42.58;101850.59;4996784;28;20061;-85
2022/05/03 10:43:35;;;;;;;6.75;6.05;;;;;;;19.53;42.89;101843.38;4996317;28;20041;-85
2022/05/03 10:46:14;;;;;;;6.25;5.65;;;;;;;19.56;43.41;101852.91;4997052;28;20088;-85
2022/05/03 10:48:43;;;;;;;6.82;6.07;;;;;;;19.64;41.85;101850.38;4995008;28;20425;-85
2022/05/03 10:51:11;;;;;;;7.85;6.30;;;;;;;19.62;41.25;101847.84;4995942;28;20084;-85
2022/05/03 10:53:40;;;;;;;10.27;5.97;;;;;;;19.63;41.63;101843.34;4996591;28;20050;-85
2022/05/03 10:56:31;;;;;;;7.72;6.10;;;;;;;19.84;42.57;101841.25;4996403;28;20080;-85
2022/05/03 10:59:16;;;;;;;7.97;6.35;;;;;;;19.92;42.71;101845.84;4989281;28;20413;-85
2022/05/03 11:01:54;;;;;;;8.82;6.15;;;;;;;19.86;41.83;101841.09;4981071;28;20022;-86
2022/05/03 11:04:21;;;;;;;6.85;5.35;;;;;;;19.72;40.38;101834.44;4975509;28;20030;-84
2022/05/03 11:06:49;;;;;;;7.63;5.40;;;;;;;19.70;40.52;101833.75;5009286;28;20022;-85
2022/05/03 11:09:30;;;;;;;4.90;4.40;;;;;;;19.63;40.77;101838.00;4994754;28;20061;-85
2022/05/03 11:11:58;;;;;;;7.53;4.93;;;;;;;19.54;40.54;101830.84;4994806;28;20121;-85
2022/05/03 11:14:24;;;;;;;8.05;5.60;;;;;;;19.73;41.11;101821.94;4995378;28;20599;-85
2022/05/03 11:17:01;;;;;;;7.85;6.75;;;;;;;19.60;40.36;101816.91;4988967;28;20047;-85
2022/05/03 11:19:28;;;;;;;8.32;6.22;;;;;;;19.63;40.64;101821.97;4990767;28;20090;-84
2022/05/03 11:21:55;;;;;;;5.78;4.53;;;;;;;19.84;41.76;101822.56;4995915;28;20544;-84
2022/05/03 11:24:27;;;;;;;7.50;5.53;;;;;;;19.75;41.01;101826.13;4995337;28;20065;-84
2022/05/03 11:26:54;;;;;;;;;;;;;;;19.96;42.38;101818.66;4996277;28;20478;-85
2022/05/03 11:29:20;;;;;;;6.38;5.35;;;;;;;19.85;40.67;101820.72;4995812;28;19914;-84
2022/05/03 11:31:51;;;;;;;8.60;5.93;;;;;;;19.86;40.58;101811.72;4995057;28;20489;-84
2022/05/03 11:34:18;;;;;;;7.35;6.30;;;;;;;19.92;40.69;101817.28;4996324;28;20513;-85
2022/05/03 11:36:47;;;;;;;7.30;6.40;;;;;;;19.89;40.50;101809.59;4994837;28;20401;-84
2022/05/03 11:39:14;;;;;;;6.68;5.97;;;;;;;19.98;41.13;101810.50;4995701;28;20114;-85
2022/05/03 11:41:43;;;;;;;5.72;5.05;;;;;;;19.88;40.51;101812.41;4994992;28;20026;-85
2022/05/03 11:44:09;;;;;;;6.90;5.57;;;;;;;19.90;40.10;101797.91;4992870;28;20026;-85
2022/05/03 11:46:37;;;;;;;5.65;4.20;;;;;;;20.20;42.13;101801.22;4990046;28;20030;-85
2022/05/03 11:49:06;;;;;;;4.95;4.45;;;;;;;20.18;39.96;101800.53;4982890;28;20037;-85
2022/05/03 11:57:11;;;;;;;7.50;6.43;;;;;;;20.54;40.09;101788.84;4993411;28;20088;-84
2022/05/03 11:59:38;;;;;;;8.38;6.38;;;;;;;20.48;40.30;101788.63;4994130;28;20034;-82
2022/05/03 12:02:19;;;;;;;6.60;5.90;;;;;;;20.44;40.99;101785.44;4993294;28;20029;-82
2022/05/03 12:05:04;;;;;;;6.15;5.53;;;;;;;20.38;40.68;101783.31;4991648;28;20022;-82
2022/05/03 12:07:34;;;;;;;7.45;5.80;;;;;;;20.36;40.39;101782.63;4991335;28;20036;-83
2022/05/03 12:09:59;;;;;;;6.93;5.43;;;;;;;20.20;39.62;101778.00;4993556;28;20030;-84
2022/05/03 12:12:43;;;;;;;5.15;4.65;;;;;;;20.15;39.68;101779.47;4993029;28;20066;-79
2022/05/03 12:15:19;;;;;;;6.20;5.20;;;;;;;20.03;40.51;101787.72;4993816;28;20387;-79
2022/05/03 12:18:15;;;;;;;5.80;4.80;;;;;;;19.97;40.90;101782.09;4991707;28;20469;-80
2022/05/03 12:21:08;;;;;;;4.72;3.63;;;;;;;19.85;40.29;101784.16;4980854;28;20060;-76